sensor_id;sensor_type;location;lat;lon;timestamp;P1;durP1;ratioP1;P2;durP2;ratioP2
31210;SDS011;17836;50.948;3.946;2023-07-31T00:01:13;16.43;;;6.30;;
31210;SDS011;17836;50.948;3.946;2023-07-31T00:03:38;18.17;;;5.60;;
31210;SDS011;17836;50.948;3.946;2023-07-31T00:06:06;15.73;;;6.33;;
31210;SDS011;17836;50.948;3.946;2023-07-31T00:08:34;13.65;;;5.35;;
31210;SDS011;17836;50.948;3.946;2023-07-31T00:11:03;13.85;;;5.47;;
31210;SDS011;17836;50.948;3.946;2023-07-31T00:13:29;18.70;;;6.07;;
31210;SDS011;17836;50.948;3.946;2023-07-31T00:15:54;11.07;;;5.32;;
31210;SDS011;17836;50.948;3.946;2023-07-31T00:18:20;11.93;;;5.40;;
31210;SDS011;17836;50.948;3.946;2023-07-31T00:20:45;10.10;;;5.00;;
31210;SDS011;17836;50.948;3.946;2023-07-31T00:23:10;13.43;;;5.40;;
31210;SDS011;17836;50.948;3.946;2023-07-31T00:25:35;9.67;;;4.70;;
31210;SDS011;17836;50.948;3.946;2023-07-31T00:28:03;17.85;;;5.57;;
31210;SDS011;17836;50.948;3.946;2023-07-31T00:30:31;15.98;;;6.50;;
31210;SDS011;17836;50.948;3.946;2023-07-31T00:32:58;12.82;;;5.35;;
31210;SDS011;17836;50.948;3.946;2023-07-31T00:35:24;16.55;;;5.97;;
31210;SDS011;17836;50.948;3.946;2023-07-31T00:37:49;14.35;;;5.80;;
31210;SDS011;17836;50.948;3.946;2023-07-31T00:40:15;16.52;;;5.25;;
31210;SDS011;17836;50.948;3.946;2023-07-31T00:42:40;16.08;;;5.53;;
31210;SDS011;17836;50.948;3.946;2023-07-31T00:45:05;17.83;;;6.07;;
31210;SDS011;17836;50.948;3.946;2023-07-31T00:47:31;13.90;;;5.78;;
31210;SDS011;17836;50.948;3.946;2023-07-31T00:49:56;15.05;;;5.88;;
31210;SDS011;17836;50.948;3.946;2023-07-31T00:52:24;14.15;;;5.63;;
31210;SDS011;17836;50.948;3.946;2023-07-31T00:54:49;14.30;;;4.95;;
31210;SDS011;17836;50.948;3.946;2023-07-31T00:57:16;15.05;;;5.88;;
31210;SDS011;17836;50.948;3.946;2023-07-31T00:59:41;12.38;;;4.68;;
31210;SDS011;17836;50.948;3.946;2023-07-31T01:02:06;16.48;;;5.80;;
31210;SDS011;17836;50.948;3.946;2023-07-31T01:04:31;16.57;;;5.37;;
31210;SDS011;17836;50.948;3.946;2023-07-31T01:07:08;18.40;;;6.30;;
31210;SDS011;17836;50.948;3.946;2023-07-31T01:09:59;15.23;;;6.30;;
31210;SDS011;17836;50.948;3.946;2023-07-31T01:12:26;16.85;;;5.63;;
31210;SDS011;17836;50.948;3.946;2023-07-31T01:17:27;11.85;;;5.10;;
31210;SDS011;17836;50.948;3.946;2023-07-31T01:19:52;17.90;;;5.77;;
31210;SDS011;17836;50.948;3.946;2023-07-31T01:22:30;11.25;;;4.75;;
31210;SDS011;17836;50.948;3.946;2023-07-31T01:25:09;12.93;;;5.07;;
31210;SDS011;17836;50.948;3.946;2023-07-31T01:27:39;9.63;;;4.78;;
31210;SDS011;17836;50.948;3.946;2023-07-31T01:30:11;13.63;;;5.00;;
31210;SDS011;17836;50.948;3.946;2023-07-31T01:32:40;15.00;;;5.28;;
31210;SDS011;17836;50.948;3.946;2023-07-31T01:35:06;13.38;;;4.68;;
31210;SDS011;17836;50.948;3.946;2023-07-31T01:37:31;11.15;;;4.85;;
31210;SDS011;17836;50.948;3.946;2023-07-31T01:39:56;12.93;;;4.80;;
31210;SDS011;17836;50.948;3.946;2023-07-31T01:42:22;15.60;;;5.80;;
31210;SDS011;17836;50.948;3.946;2023-07-31T01:44:47;12.27;;;4.80;;
31210;SDS011;17836;50.948;3.946;2023-07-31T01:47:12;11.43;;;4.93;;
31210;SDS011;17836;50.948;3.946;2023-07-31T01:49:37;11.88;;;4.57;;
31210;SDS011;17836;50.948;3.946;2023-07-31T01:52:03;15.00;;;5.27;;
31210;SDS011;17836;50.948;3.946;2023-07-31T01:54:28;10.48;;;4.68;;
31210;SDS011;17836;50.948;3.946;2023-07-31T01:56:53;12.13;;;4.40;;
31210;SDS011;17836;50.948;3.946;2023-07-31T01:59:19;12.87;;;5.17;;
31210;SDS011;17836;50.948;3.946;2023-07-31T02:01:44;13.57;;;4.50;;
31210;SDS011;17836;50.948;3.946;2023-07-31T02:04:09;10.80;;;4.80;;
31210;SDS011;17836;50.948;3.946;2023-07-31T02:06:34;10.13;;;4.73;;
31210;SDS011;17836;50.948;3.946;2023-07-31T02:09:02;11.07;;;4.78;;
31210;SDS011;17836;50.948;3.946;2023-07-31T02:11:30;9.60;;;4.28;;
31210;SDS011;17836;50.948;3.946;2023-07-31T02:13:55;11.27;;;5.10;;
31210;SDS011;17836;50.948;3.946;2023-07-31T02:16:20;16.50;;;5.90;;
31210;SDS011;17836;50.948;3.946;2023-07-31T02:18:46;10.23;;;5.07;;
31210;SDS011;17836;50.948;3.946;2023-07-31T02:21:11;15.07;;;5.43;;
31210;SDS011;17836;50.948;3.946;2023-07-31T02:23:36;10.30;;;4.83;;
31210;SDS011;17836;50.948;3.946;2023-07-31T02:26:01;12.27;;;4.60;;
31210;SDS011;17836;50.948;3.946;2023-07-31T02:28:28;14.75;;;5.78;;
31210;SDS011;17836;50.948;3.946;2023-07-31T02:30:56;9.65;;;4.78;;
31210;SDS011;17836;50.948;3.946;2023-07-31T02:33:22;12.63;;;5.00;;
31210;SDS011;17836;50.948;3.946;2023-07-31T02:35:47;10.30;;;4.30;;
31210;SDS011;17836;50.948;3.946;2023-07-31T02:38:14;13.38;;;5.53;;
31210;SDS011;17836;50.948;3.946;2023-07-31T02:40:40;10.50;;;5.13;;
31210;SDS011;17836;50.948;3.946;2023-07-31T02:43:08;8.88;;;4.68;;
31210;SDS011;17836;50.948;3.946;2023-07-31T02:45:33;9.20;;;4.28;;
31210;SDS011;17836;50.948;3.946;2023-07-31T02:47:59;9.48;;;4.45;;
31210;SDS011;17836;50.948;3.946;2023-07-31T02:50:24;8.80;;;4.30;;
31210;SDS011;17836;50.948;3.946;2023-07-31T02:52:52;11.88;;;4.70;;
31210;SDS011;17836;50.948;3.946;2023-07-31T02:55:17;9.90;;;4.67;;
31210;SDS011;17836;50.948;3.946;2023-07-31T02:57:43;11.37;;;4.60;;
31210;SDS011;17836;50.948;3.946;2023-07-31T03:00:10;8.65;;;4.53;;
31210;SDS011;17836;50.948;3.946;2023-07-31T03:02:38;10.23;;;4.78;;
31210;SDS011;17836;50.948;3.946;2023-07-31T03:05:06;10.98;;;5.20;;
31210;SDS011;17836;50.948;3.946;2023-07-31T03:07:31;10.48;;;5.40;;
31210;SDS011;17836;50.948;3.946;2023-07-31T03:09:56;11.82;;;5.22;;
31210;SDS011;17836;50.948;3.946;2023-07-31T03:12:22;7.30;;;4.60;;
31210;SDS011;17836;50.948;3.946;2023-07-31T03:14:47;9.35;;;5.03;;
31210;SDS011;17836;50.948;3.946;2023-07-31T03:17:15;8.90;;;4.63;;
31210;SDS011;17836;50.948;3.946;2023-07-31T03:19:40;9.20;;;4.70;;
31210;SDS011;17836;50.948;3.946;2023-07-31T03:22:05;7.43;;;4.80;;
31210;SDS011;17836;50.948;3.946;2023-07-31T03:24:31;9.43;;;4.13;;
31210;SDS011;17836;50.948;3.946;2023-07-31T03:26:58;11.65;;;4.35;;
31210;SDS011;17836;50.948;3.946;2023-07-31T03:29:23;8.07;;;4.43;;
31210;SDS011;17836;50.948;3.946;2023-07-31T03:31:49;7.07;;;4.97;;
31210;SDS011;17836;50.948;3.946;2023-07-31T03:34:14;8.02;;;4.95;;
31210;SDS011;17836;50.948;3.946;2023-07-31T03:36:42;8.27;;;4.65;;
31210;SDS011;17836;50.948;3.946;2023-07-31T03:39:07;12.70;;;5.28;;
31210;SDS011;17836;50.948;3.946;2023-07-31T03:41:33;11.60;;;5.00;;
31210;SDS011;17836;50.948;3.946;2023-07-31T03:44:02;7.70;;;4.57;;
31210;SDS011;17836;50.948;3.946;2023-07-31T03:46:30;8.27;;;4.78;;
31210;SDS011;17836;50.948;3.946;2023-07-31T03:48:55;7.65;;;4.55;;
31210;SDS011;17836;50.948;3.946;2023-07-31T03:51:20;7.20;;;4.37;;
31210;SDS011;17836;50.948;3.946;2023-07-31T03:53:45;12.47;;;5.73;;
31210;SDS011;17836;50.948;3.946;2023-07-31T03:56:13;10.02;;;4.57;;
31210;SDS011;17836;50.948;3.946;2023-07-31T03:58:38;9.33;;;5.07;;
31210;SDS011;17836;50.948;3.946;2023-07-31T04:01:04;7.87;;;4.13;;
31210;SDS011;17836;50.948;3.946;2023-07-31T04:03:29;11.33;;;4.73;;
31210;SDS011;17836;50.948;3.946;2023-07-31T04:05:55;7.70;;;4.57;;
31210;SDS011;17836;50.948;3.946;2023-07-31T04:08:23;9.65;;;4.15;;
31210;SDS011;17836;50.948;3.946;2023-07-31T04:10:48;7.00;;;3.80;;
31210;SDS011;17836;50.948;3.946;2023-07-31T04:13:14;8.48;;;4.95;;
31210;SDS011;17836;50.948;3.946;2023-07-31T04:15:39;5.78;;;4.28;;
31210;SDS011;17836;50.948;3.946;2023-07-31T04:18:05;6.60;;;4.65;;
31210;SDS011;17836;50.948;3.946;2023-07-31T04:20:30;6.43;;;4.28;;
31210;SDS011;17836;50.948;3.946;2023-07-31T04:22:55;6.85;;;4.72;;
31210;SDS011;17836;50.948;3.946;2023-07-31T04:25:23;7.20;;;4.68;;
31210;SDS011;17836;50.948;3.946;2023-07-31T04:27:48;5.25;;;4.40;;
31210;SDS011;17836;50.948;3.946;2023-07-31T04:30:13;7.37;;;4.67;;
31210;SDS011;17836;50.948;3.946;2023-07-31T04:32:39;8.70;;;5.13;;
31210;SDS011;17836;50.948;3.946;2023-07-31T04:35:04;6.27;;;4.60;;
31210;SDS011;17836;50.948;3.946;2023-07-31T04:37:29;8.90;;;4.72;;
31210;SDS011;17836;50.948;3.946;2023-07-31T04:39:55;7.30;;;5.27;;
31210;SDS011;17836;50.948;3.946;2023-07-31T04:42:20;7.43;;;5.13;;
31210;SDS011;17836;50.948;3.946;2023-07-31T04:44:45;11.27;;;4.97;;
31210;SDS011;17836;50.948;3.946;2023-07-31T04:47:10;11.53;;;5.57;;
31210;SDS011;17836;50.948;3.946;2023-07-31T04:49:38;7.63;;;5.38;;
31210;SDS011;17836;50.948;3.946;2023-07-31T04:52:03;5.78;;;4.65;;
31210;SDS011;17836;50.948;3.946;2023-07-31T04:54:29;7.05;;;5.32;;
31210;SDS011;17836;50.948;3.946;2023-07-31T04:56:54;8.73;;;4.47;;
31210;SDS011;17836;50.948;3.946;2023-07-31T04:59:19;9.60;;;5.23;;
31210;SDS011;17836;50.948;3.946;2023-07-31T05:01:45;8.17;;;5.40;;
31210;SDS011;17836;50.948;3.946;2023-07-31T05:04:12;7.93;;;5.87;;
31210;SDS011;17836;50.948;3.946;2023-07-31T05:06:37;12.45;;;5.07;;
31210;SDS011;17836;50.948;3.946;2023-07-31T05:09:02;8.57;;;5.50;;
31210;SDS011;17836;50.948;3.946;2023-07-31T05:11:28;6.33;;;5.47;;
31210;SDS011;17836;50.948;3.946;2023-07-31T05:13:55;7.35;;;5.47;;
31210;SDS011;17836;50.948;3.946;2023-07-31T05:16:20;6.93;;;5.83;;
31210;SDS011;17836;50.948;3.946;2023-07-31T05:18:47;14.60;;;5.87;;
31210;SDS011;17836;50.948;3.946;2023-07-31T05:21:14;7.57;;;5.93;;
31210;SDS011;17836;50.948;3.946;2023-07-31T05:23:42;8.15;;;5.95;;
31210;SDS011;17836;50.948;3.946;2023-07-31T05:26:07;7.93;;;5.90;;
31210;SDS011;17836;50.948;3.946;2023-07-31T05:28:35;7.80;;;5.60;;
31210;SDS011;17836;50.948;3.946;2023-07-31T05:31:03;8.27;;;6.28;;
31210;SDS011;17836;50.948;3.946;2023-07-31T05:33:28;8.88;;;6.93;;
31210;SDS011;17836;50.948;3.946;2023-07-31T05:35:53;10.32;;;6.68;;
31210;SDS011;17836;50.948;3.946;2023-07-31T05:38:21;10.53;;;6.07;;
31210;SDS011;17836;50.948;3.946;2023-07-31T05:40:46;7.65;;;5.35;;
31210;SDS011;17836;50.948;3.946;2023-07-31T05:43:12;7.68;;;5.28;;
31210;SDS011;17836;50.948;3.946;2023-07-31T05:45:37;9.00;;;5.72;;
31210;SDS011;17836;50.948;3.946;2023-07-31T05:48:03;8.98;;;5.65;;
31210;SDS011;17836;50.948;3.946;2023-07-31T05:50:29;7.10;;;5.15;;
31210;SDS011;17836;50.948;3.946;2023-07-31T05:52:54;9.07;;;4.95;;
31210;SDS011;17836;50.948;3.946;2023-07-31T05:55:20;9.13;;;4.93;;
31210;SDS011;17836;50.948;3.946;2023-07-31T05:57:48;13.00;;;5.13;;
31210;SDS011;17836;50.948;3.946;2023-07-31T06:00:13;10.37;;;4.67;;
31210;SDS011;17836;50.948;3.946;2023-07-31T06:02:39;8.43;;;4.22;;
31210;SDS011;17836;50.948;3.946;2023-07-31T06:05:06;8.25;;;4.38;;
31210;SDS011;17836;50.948;3.946;2023-07-31T06:07:32;8.07;;;4.88;;
31210;SDS011;17836;50.948;3.946;2023-07-31T06:09:57;10.20;;;4.30;;
31210;SDS011;17836;50.948;3.946;2023-07-31T06:12:28;7.85;;;4.25;;
31210;SDS011;17836;50.948;3.946;2023-07-31T06:14:53;6.13;;;3.90;;
31210;SDS011;17836;50.948;3.946;2023-07-31T06:17:18;6.53;;;3.93;;
31210;SDS011;17836;50.948;3.946;2023-07-31T06:19:43;9.00;;;3.53;;
31210;SDS011;17836;50.948;3.946;2023-07-31T06:22:11;6.38;;;3.75;;
31210;SDS011;17836;50.948;3.946;2023-07-31T06:24:36;6.30;;;4.23;;
31210;SDS011;17836;50.948;3.946;2023-07-31T06:27:01;9.80;;;4.23;;
31210;SDS011;17836;50.948;3.946;2023-07-31T06:29:29;5.68;;;4.30;;
31210;SDS011;17836;50.948;3.946;2023-07-31T06:31:54;10.75;;;4.22;;
31210;SDS011;17836;50.948;3.946;2023-07-31T06:34:19;7.40;;;4.37;;
31210;SDS011;17836;50.948;3.946;2023-07-31T06:36:44;8.40;;;3.60;;
31210;SDS011;17836;50.948;3.946;2023-07-31T06:39:10;5.18;;;3.60;;
31210;SDS011;17836;50.948;3.946;2023-07-31T06:41:35;5.17;;;3.23;;
31210;SDS011;17836;50.948;3.946;2023-07-31T06:44:00;8.77;;;3.63;;
31210;SDS011;17836;50.948;3.946;2023-07-31T06:46:25;5.57;;;3.33;;
31210;SDS011;17836;50.948;3.946;2023-07-31T06:48:51;7.00;;;3.83;;
31210;SDS011;17836;50.948;3.946;2023-07-31T06:51:16;6.07;;;3.17;;
31210;SDS011;17836;50.948;3.946;2023-07-31T06:53:41;6.90;;;3.23;;
31210;SDS011;17836;50.948;3.946;2023-07-31T06:56:10;6.72;;;4.03;;
31210;SDS011;17836;50.948;3.946;2023-07-31T06:58:35;4.03;;;3.03;;
31210;SDS011;17836;50.948;3.946;2023-07-31T07:01:00;8.20;;;3.97;;
31210;SDS011;17836;50.948;3.946;2023-07-31T07:03:25;8.67;;;3.40;;
31210;SDS011;17836;50.948;3.946;2023-07-31T07:05:51;5.47;;;3.20;;
31210;SDS011;17836;50.948;3.946;2023-07-31T07:08:18;4.57;;;3.60;;
31210;SDS011;17836;50.948;3.946;2023-07-31T07:10:44;6.10;;;3.20;;
31210;SDS011;17836;50.948;3.946;2023-07-31T07:13:09;6.60;;;3.15;;
31210;SDS011;17836;50.948;3.946;2023-07-31T07:15:34;6.22;;;2.95;;
31210;SDS011;17836;50.948;3.946;2023-07-31T07:18:00;7.03;;;3.58;;
31210;SDS011;17836;50.948;3.946;2023-07-31T07:20:25;21.13;;;3.78;;
31210;SDS011;17836;50.948;3.946;2023-07-31T07:22:50;6.50;;;3.20;;
31210;SDS011;17836;50.948;3.946;2023-07-31T07:25:15;3.87;;;2.97;;
31210;SDS011;17836;50.948;3.946;2023-07-31T07:27:41;6.27;;;3.40;;
31210;SDS011;17836;50.948;3.946;2023-07-31T07:30:06;5.60;;;3.07;;
31210;SDS011;17836;50.948;3.946;2023-07-31T07:34:57;5.57;;;3.22;;
31210;SDS011;17836;50.948;3.946;2023-07-31T07:37:22;6.05;;;3.45;;
31210;SDS011;17836;50.948;3.946;2023-07-31T07:39:48;5.73;;;2.90;;
31210;SDS011;17836;50.948;3.946;2023-07-31T07:42:13;6.37;;;3.27;;
31210;SDS011;17836;50.948;3.946;2023-07-31T07:44:38;4.50;;;3.10;;
31210;SDS011;17836;50.948;3.946;2023-07-31T07:47:03;5.17;;;3.03;;
31210;SDS011;17836;50.948;3.946;2023-07-31T07:49:31;5.97;;;2.42;;
31210;SDS011;17836;50.948;3.946;2023-07-31T07:51:56;6.87;;;3.27;;
31210;SDS011;17836;50.948;3.946;2023-07-31T07:54:21;4.67;;;2.80;;
31210;SDS011;17836;50.948;3.946;2023-07-31T07:56:47;6.22;;;3.28;;
31210;SDS011;17836;50.948;3.946;2023-07-31T07:59:12;6.57;;;3.03;;
31210;SDS011;17836;50.948;3.946;2023-07-31T08:01:37;5.33;;;2.37;;
31210;SDS011;17836;50.948;3.946;2023-07-31T08:04:02;10.33;;;4.03;;
31210;SDS011;17836;50.948;3.946;2023-07-31T08:06:28;3.58;;;2.53;;
31210;SDS011;17836;50.948;3.946;2023-07-31T08:08:54;5.40;;;2.50;;
31210;SDS011;17836;50.948;3.946;2023-07-31T08:11:22;6.40;;;3.08;;
31210;SDS011;17836;50.948;3.946;2023-07-31T08:13:48;4.38;;;2.35;;
31210;SDS011;17836;50.948;3.946;2023-07-31T08:16:14;6.97;;;2.42;;
31210;SDS011;17836;50.948;3.946;2023-07-31T08:18:39;4.50;;;2.27;;
31210;SDS011;17836;50.948;3.946;2023-07-31T08:21:05;3.75;;;1.85;;
31210;SDS011;17836;50.948;3.946;2023-07-31T08:23:33;2.92;;;2.28;;
31210;SDS011;17836;50.948;3.946;2023-07-31T08:25:58;5.73;;;2.20;;
31210;SDS011;17836;50.948;3.946;2023-07-31T08:28:23;3.67;;;1.80;;
31210;SDS011;17836;50.948;3.946;2023-07-31T08:30:48;6.37;;;2.30;;
31210;SDS011;17836;50.948;3.946;2023-07-31T08:33:15;3.55;;;2.00;;
31210;SDS011;17836;50.948;3.946;2023-07-31T08:35:40;3.60;;;1.98;;
31210;SDS011;17836;50.948;3.946;2023-07-31T08:38:06;3.73;;;2.30;;
31210;SDS011;17836;50.948;3.946;2023-07-31T08:40:33;5.50;;;1.97;;
31210;SDS011;17836;50.948;3.946;2023-07-31T08:43:00;5.60;;;2.30;;
31210;SDS011;17836;50.948;3.946;2023-07-31T08:45:27;5.38;;;2.42;;
31210;SDS011;17836;50.948;3.946;2023-07-31T08:47:56;3.58;;;2.45;;
31210;SDS011;17836;50.948;3.946;2023-07-31T08:50:24;4.70;;;1.88;;
31210;SDS011;17836;50.948;3.946;2023-07-31T08:52:53;3.63;;;2.17;;
31210;SDS011;17836;50.948;3.946;2023-07-31T08:55:18;6.40;;;2.05;;
31210;SDS011;17836;50.948;3.946;2023-07-31T08:57:50;2.25;;;2.05;;
31210;SDS011;17836;50.948;3.946;2023-07-31T09:00:16;5.18;;;2.75;;
31210;SDS011;17836;50.948;3.946;2023-07-31T09:02:46;3.05;;;2.20;;
31210;SDS011;17836;50.948;3.946;2023-07-31T09:05:13;6.57;;;2.00;;
31210;SDS011;17836;50.948;3.946;2023-07-31T09:07:38;5.30;;;2.03;;
31210;SDS011;17836;50.948;3.946;2023-07-31T09:10:04;4.50;;;3.00;;
31210;SDS011;17836;50.948;3.946;2023-07-31T09:12:30;3.55;;;2.10;;
31210;SDS011;17836;50.948;3.946;2023-07-31T09:14:56;4.55;;;2.70;;
31210;SDS011;17836;50.948;3.946;2023-07-31T09:17:28;4.45;;;2.58;;
31210;SDS011;17836;50.948;3.946;2023-07-31T09:19:53;3.88;;;2.55;;
31210;SDS011;17836;50.948;3.946;2023-07-31T09:22:22;3.43;;;2.63;;
31210;SDS011;17836;50.948;3.946;2023-07-31T09:24:55;4.38;;;2.10;;
31210;SDS011;17836;50.948;3.946;2023-07-31T09:27:21;3.80;;;2.60;;
31210;SDS011;17836;50.948;3.946;2023-07-31T09:29:46;7.33;;;2.70;;
31210;SDS011;17836;50.948;3.946;2023-07-31T09:32:23;3.40;;;2.67;;
31210;SDS011;17836;50.948;3.946;2023-07-31T09:34:49;4.13;;;2.78;;
31210;SDS011;17836;50.948;3.946;2023-07-31T09:37:15;2.70;;;2.17;;
31210;SDS011;17836;50.948;3.946;2023-07-31T09:39:46;3.37;;;2.40;;
31210;SDS011;17836;50.948;3.946;2023-07-31T09:42:26;8.02;;;3.10;;
31210;SDS011;17836;50.948;3.946;2023-07-31T09:44:51;3.83;;;2.70;;
31210;SDS011;17836;50.948;3.946;2023-07-31T09:47:23;3.33;;;2.37;;
31210;SDS011;17836;50.948;3.946;2023-07-31T09:49:51;4.78;;;3.22;;
31210;SDS011;17836;50.948;3.946;2023-07-31T09:52:16;4.68;;;3.13;;
31210;SDS011;17836;50.948;3.946;2023-07-31T09:54:42;3.97;;;2.77;;
31210;SDS011;17836;50.948;3.946;2023-07-31T09:57:07;6.03;;;2.77;;
31210;SDS011;17836;50.948;3.946;2023-07-31T09:59:33;6.93;;;2.97;;
31210;SDS011;17836;50.948;3.946;2023-07-31T10:01:59;6.10;;;3.67;;
31210;SDS011;17836;50.948;3.946;2023-07-31T10:04:25;4.80;;;3.77;;
31210;SDS011;17836;50.948;3.946;2023-07-31T10:06:52;4.90;;;3.08;;
31210;SDS011;17836;50.948;3.946;2023-07-31T10:09:18;3.40;;;2.95;;
31210;SDS011;17836;50.948;3.946;2023-07-31T10:11:52;5.65;;;3.70;;
31210;SDS011;17836;50.948;3.946;2023-07-31T10:14:21;5.22;;;3.40;;
31210;SDS011;17836;50.948;3.946;2023-07-31T10:16:46;4.65;;;3.17;;
31210;SDS011;17836;50.948;3.946;2023-07-31T10:19:12;4.78;;;3.45;;
31210;SDS011;17836;50.948;3.946;2023-07-31T10:21:39;5.87;;;3.50;;
31210;SDS011;17836;50.948;3.946;2023-07-31T10:24:06;5.97;;;3.90;;
31210;SDS011;17836;50.948;3.946;2023-07-31T10:26:34;8.43;;;4.18;;
31210;SDS011;17836;50.948;3.946;2023-07-31T10:29:00;3.92;;;3.40;;
31210;SDS011;17836;50.948;3.946;2023-07-31T10:31:28;4.80;;;3.83;;
31210;SDS011;17836;50.948;3.946;2023-07-31T10:33:54;4.57;;;4.05;;
31210;SDS011;17836;50.948;3.946;2023-07-31T10:36:19;4.30;;;3.72;;
31210;SDS011;17836;50.948;3.946;2023-07-31T10:38:50;5.68;;;3.70;;
31210;SDS011;17836;50.948;3.946;2023-07-31T10:41:16;6.43;;;4.05;;
31210;SDS011;17836;50.948;3.946;2023-07-31T10:43:41;7.60;;;3.42;;
31210;SDS011;17836;50.948;3.946;2023-07-31T10:46:07;5.40;;;3.47;;
31210;SDS011;17836;50.948;3.946;2023-07-31T10:48:35;6.80;;;3.80;;
31210;SDS011;17836;50.948;3.946;2023-07-31T10:51:02;6.18;;;3.85;;
31210;SDS011;17836;50.948;3.946;2023-07-31T10:53:31;6.88;;;3.92;;
31210;SDS011;17836;50.948;3.946;2023-07-31T10:55:58;8.75;;;3.42;;
31210;SDS011;17836;50.948;3.946;2023-07-31T10:58:23;5.57;;;3.40;;
31210;SDS011;17836;50.948;3.946;2023-07-31T11:00:48;5.33;;;3.67;;
31210;SDS011;17836;50.948;3.946;2023-07-31T11:03:15;8.68;;;3.42;;
31210;SDS011;17836;50.948;3.946;2023-07-31T11:08:29;8.45;;;3.60;;
31210;SDS011;17836;50.948;3.946;2023-07-31T11:13:26;6.38;;;3.72;;
31210;SDS011;17836;50.948;3.946;2023-07-31T11:15:51;5.63;;;4.33;;
31210;SDS011;17836;50.948;3.946;2023-07-31T11:18:19;5.97;;;3.90;;
31210;SDS011;17836;50.948;3.946;2023-07-31T11:20:44;6.28;;;4.22;;
31210;SDS011;17836;50.948;3.946;2023-07-31T11:23:09;4.07;;;3.67;;
31210;SDS011;17836;50.948;3.946;2023-07-31T11:25:35;5.30;;;4.15;;
31210;SDS011;17836;50.948;3.946;2023-07-31T11:28:11;5.47;;;4.20;;
31210;SDS011;17836;50.948;3.946;2023-07-31T11:30:37;6.20;;;3.95;;
31210;SDS011;17836;50.948;3.946;2023-07-31T11:33:02;7.78;;;4.40;;
31210;SDS011;17836;50.948;3.946;2023-07-31T11:35:29;5.35;;;3.75;;
31210;SDS011;17836;50.948;3.946;2023-07-31T11:37:54;4.90;;;4.28;;
31210;SDS011;17836;50.948;3.946;2023-07-31T11:40:19;4.87;;;4.07;;
31210;SDS011;17836;50.948;3.946;2023-07-31T11:42:45;6.20;;;4.17;;
31210;SDS011;17836;50.948;3.946;2023-07-31T11:45:10;8.23;;;4.85;;
31210;SDS011;17836;50.948;3.946;2023-07-31T11:47:36;6.83;;;4.20;;
31210;SDS011;17836;50.948;3.946;2023-07-31T11:50:02;7.53;;;3.97;;
31210;SDS011;17836;50.948;3.946;2023-07-31T11:52:36;7.28;;;3.70;;
31210;SDS011;17836;50.948;3.946;2023-07-31T11:55:02;6.72;;;4.05;;
31210;SDS011;17836;50.948;3.946;2023-07-31T11:57:28;6.57;;;3.33;;
31210;SDS011;17836;50.948;3.946;2023-07-31T11:59:54;5.75;;;3.63;;
31210;SDS011;17836;50.948;3.946;2023-07-31T12:02:19;5.80;;;4.03;;
31210;SDS011;17836;50.948;3.946;2023-07-31T12:04:46;9.95;;;3.67;;
31210;SDS011;17836;50.948;3.946;2023-07-31T12:07:11;5.22;;;3.30;;
31210;SDS011;17836;50.948;3.946;2023-07-31T12:09:38;6.63;;;3.63;;
31210;SDS011;17836;50.948;3.946;2023-07-31T12:12:03;4.57;;;3.30;;
31210;SDS011;17836;50.948;3.946;2023-07-31T12:14:32;4.63;;;3.83;;
31210;SDS011;17836;50.948;3.946;2023-07-31T12:16:58;6.75;;;3.55;;
31210;SDS011;17836;50.948;3.946;2023-07-31T12:19:27;4.25;;;3.30;;
31210;SDS011;17836;50.948;3.946;2023-07-31T12:22:11;5.07;;;3.45;;
31210;SDS011;17836;50.948;3.946;2023-07-31T12:27:08;5.68;;;3.60;;
31210;SDS011;17836;50.948;3.946;2023-07-31T12:29:34;6.03;;;3.80;;
31210;SDS011;17836;50.948;3.946;2023-07-31T12:32:00;7.18;;;4.28;;
31210;SDS011;17836;50.948;3.946;2023-07-31T12:34:25;9.57;;;3.87;;
31210;SDS011;17836;50.948;3.946;2023-07-31T12:36:53;5.65;;;3.92;;
31210;SDS011;17836;50.948;3.946;2023-07-31T12:39:18;11.48;;;4.68;;
31210;SDS011;17836;50.948;3.946;2023-07-31T12:41:44;6.47;;;3.90;;
31210;SDS011;17836;50.948;3.946;2023-07-31T12:44:09;7.23;;;4.67;;
31210;SDS011;17836;50.948;3.946;2023-07-31T12:46:35;9.93;;;4.75;;
31210;SDS011;17836;50.948;3.946;2023-07-31T12:49:00;6.17;;;4.57;;
31210;SDS011;17836;50.948;3.946;2023-07-31T12:51:28;10.95;;;5.13;;
31210;SDS011;17836;50.948;3.946;2023-07-31T12:53:55;8.80;;;4.47;;
31210;SDS011;17836;50.948;3.946;2023-07-31T12:56:21;7.27;;;4.57;;
31210;SDS011;17836;50.948;3.946;2023-07-31T12:58:48;9.33;;;4.50;;
31210;SDS011;17836;50.948;3.946;2023-07-31T13:01:13;3.72;;;3.33;;
31210;SDS011;17836;50.948;3.946;2023-07-31T13:03:39;5.93;;;3.57;;
31210;SDS011;17836;50.948;3.946;2023-07-31T13:06:04;5.07;;;2.93;;
31210;SDS011;17836;50.948;3.946;2023-07-31T13:08:30;4.75;;;2.95;;
31210;SDS011;17836;50.948;3.946;2023-07-31T13:10:55;6.10;;;2.60;;
31210;SDS011;17836;50.948;3.946;2023-07-31T13:13:21;5.33;;;3.03;;
31210;SDS011;17836;50.948;3.946;2023-07-31T13:15:49;8.10;;;3.22;;
31210;SDS011;17836;50.948;3.946;2023-07-31T13:18:15;4.40;;;2.47;;
31210;SDS011;17836;50.948;3.946;2023-07-31T13:20:40;3.80;;;2.60;;
31210;SDS011;17836;50.948;3.946;2023-07-31T13:23:05;3.37;;;2.10;;
31210;SDS011;17836;50.948;3.946;2023-07-31T13:25:30;4.03;;;2.50;;
31210;SDS011;17836;50.948;3.946;2023-07-31T13:27:56;3.27;;;2.07;;
31210;SDS011;17836;50.948;3.946;2023-07-31T13:30:21;2.60;;;1.77;;
31210;SDS011;17836;50.948;3.946;2023-07-31T13:32:46;3.55;;;2.10;;
31210;SDS011;17836;50.948;3.946;2023-07-31T13:35:14;4.07;;;1.60;;
31210;SDS011;17836;50.948;3.946;2023-07-31T13:37:39;2.05;;;1.48;;
31210;SDS011;17836;50.948;3.946;2023-07-31T13:40:05;1.60;;;1.40;;
31210;SDS011;17836;50.948;3.946;2023-07-31T13:42:30;2.17;;;1.63;;
31210;SDS011;17836;50.948;3.946;2023-07-31T13:44:56;3.58;;;1.98;;
31210;SDS011;17836;50.948;3.946;2023-07-31T13:47:21;3.80;;;2.20;;
31210;SDS011;17836;50.948;3.946;2023-07-31T13:49:46;2.53;;;1.83;;
31210;SDS011;17836;50.948;3.946;2023-07-31T13:52:12;2.85;;;2.50;;
31210;SDS011;17836;50.948;3.946;2023-07-31T13:54:37;4.23;;;2.23;;
31210;SDS011;17836;50.948;3.946;2023-07-31T13:57:02;3.83;;;1.97;;
31210;SDS011;17836;50.948;3.946;2023-07-31T13:59:27;3.08;;;2.35;;
31210;SDS011;17836;50.948;3.946;2023-07-31T14:01:53;3.40;;;2.43;;
31210;SDS011;17836;50.948;3.946;2023-07-31T14:04:18;3.50;;;2.53;;
31210;SDS011;17836;50.948;3.946;2023-07-31T14:06:44;4.65;;;2.65;;
31210;SDS011;17836;50.948;3.946;2023-07-31T14:09:13;4.63;;;2.92;;
31210;SDS011;17836;50.948;3.946;2023-07-31T14:11:39;7.15;;;3.15;;
31210;SDS011;17836;50.948;3.946;2023-07-31T14:14:04;5.20;;;3.33;;
31210;SDS011;17836;50.948;3.946;2023-07-31T14:16:29;4.73;;;3.20;;
31210;SDS011;17836;50.948;3.946;2023-07-31T14:18:55;3.80;;;2.80;;
31210;SDS011;17836;50.948;3.946;2023-07-31T14:21:23;5.97;;;3.13;;
31210;SDS011;17836;50.948;3.946;2023-07-31T14:23:48;3.35;;;2.45;;
31210;SDS011;17836;50.948;3.946;2023-07-31T14:26:13;3.80;;;2.40;;
31210;SDS011;17836;50.948;3.946;2023-07-31T14:28:38;3.28;;;2.60;;
31210;SDS011;17836;50.948;3.946;2023-07-31T14:31:04;5.73;;;2.93;;
31210;SDS011;17836;50.948;3.946;2023-07-31T14:33:29;6.43;;;2.28;;
31210;SDS011;17836;50.948;3.946;2023-07-31T14:35:54;2.87;;;2.23;;
31210;SDS011;17836;50.948;3.946;2023-07-31T14:38:19;6.20;;;2.40;;
31210;SDS011;17836;50.948;3.946;2023-07-31T14:40:45;3.20;;;2.00;;
31210;SDS011;17836;50.948;3.946;2023-07-31T14:43:10;3.37;;;2.13;;
31210;SDS011;17836;50.948;3.946;2023-07-31T14:45:36;2.13;;;1.67;;
31210;SDS011;17836;50.948;3.946;2023-07-31T14:48:04;2.90;;;1.67;;
31210;SDS011;17836;50.948;3.946;2023-07-31T14:50:29;2.72;;;1.17;;
31210;SDS011;17836;50.948;3.946;2023-07-31T14:52:54;2.20;;;1.42;;